Weaver, AL (36277)

12:18 PM CDT on July 29, 2016 (GMT -0500)
Weaver, Alabama | | Change Station

Elev 735 ft 33.75 °N, 85.84 °W | Updated 21 seconds ago

Partly Cloudy
Partly Cloudy
88.3 °F
Feels Like 96 °F
N
1.7
Wind Variable Wind from SW

Today
High -- | Low -- °F
--% Chance of Precip.
Yesterday
High -- | Low -- °F
Precip. -- in
Pressure 30.00 in
Visibility 10.0 miles
Clouds Few 4500 ft
Heat Index 96 °F
Dew Point 73 °F
Humidity 61%
Rainfall 0.00 in
Snow Depth Not available.
5:53 AM 7:45 PM
Waning Crescent, 20% visible
METAR KANB 291653Z AUTO 25014KT 10SM FEW045 31/21 A3003 RMK AO2 SLP159 T03110206
Pressure 30.00 in
Visibility 10.0 miles
Clouds Few 4500 ft
Heat Index 96 °F
Dew Point 73 °F
Humidity 61%
Rainfall 0.00 in
Snow Depth Not available.
5:53 AM 7:45 PM
Waning Crescent, 20% visible
METAR KANB 291653Z AUTO 25014KT 10SM FEW045 31/21 A3003 RMK AO2 SLP159 T03110206

10-Day Weather Forecast

Almanac

Astronomy

Jul. 29, 2016 Rise Set
Actual Time
Civil Twilight
Nautical Twilight
Astronomical Twilight
Moon
Length of Visible Light
Length of Day
Tomorrow will be .
, % of the Moon is Illuminated

Today's Extremes

State Highs State Lows

Community

WunderPhotos

Upload Photos

1,928,381 photos uploaded!

WunderBlog® & News

Nearby

Air Quality

  Air Quality AQ Index Pollutant
Not available.

Snow Depth

Station Depth Elevation

Earthquake Activity

City Distance Mag. Time & Date
Minimum magnitude displayed is 2.5.

Coastal Water Temperatures

Place Temperature

Stations

Nearby Weather Stations

Station Location Temp. Windchill Dew Point Humidity Wind Precip. Elev Updated Type
                   

Watches & Warnings

There are currently no watches in effect.